createdAt,value
2023-01-27T00:00:54.707Z,84.09
2023-01-27T00:01:56.456Z,84.06
2023-01-27T00:02:58.209Z,83.37
2023-01-27T00:04:00.074Z,83.90
2023-01-27T00:05:01.965Z,83.60
2023-01-27T00:06:04.925Z,84.00
2023-01-27T00:07:06.708Z,83.61
2023-01-27T00:08:08.499Z,84.39
2023-01-27T00:09:11.664Z,83.51
2023-01-27T00:10:18.429Z,83.80
2023-01-27T00:11:38.824Z,84.48
2023-01-27T00:12:58.966Z,84.69
2023-01-27T00:14:00.737Z,84.73
2023-01-27T00:15:04.362Z,83.71
2023-01-27T00:16:06.397Z,84.41
2023-01-27T00:17:08.202Z,84.54
2023-01-27T00:18:10.869Z,84.58
2023-01-27T00:19:12.621Z,83.76
2023-01-27T00:20:34.360Z,83.65
2023-01-27T00:21:54.663Z,83.41
2023-01-27T00:23:14.931Z,83.23
2023-01-27T00:24:35.075Z,84.03
2023-01-27T00:25:36.849Z,83.01
2023-01-27T00:26:38.605Z,83.23
2023-01-27T00:27:40.418Z,83.23
2023-01-27T00:28:43.512Z,82.99
2023-01-27T00:29:45.278Z,83.82
2023-01-27T00:30:47.086Z,83.16
2023-01-27T00:32:07.427Z,83.49
2023-01-27T00:33:30.566Z,83.66
2023-01-27T00:34:32.408Z,83.24
2023-01-27T00:35:35.063Z,83.95
2023-01-27T00:36:38.101Z,83.72
2023-01-27T00:37:39.850Z,83.40
2023-01-27T00:38:44.165Z,83.82
2023-01-27T00:39:45.978Z,84.08
2023-01-27T00:41:07.750Z,83.70
2023-01-27T00:42:09.616Z,84.07
2023-01-27T00:43:11.476Z,83.96
2023-01-27T00:44:13.719Z,83.69
2023-01-27T00:45:34.167Z,83.69
2023-01-27T00:46:36.016Z,84.29
2023-01-27T00:47:37.846Z,84.00
2023-01-27T00:48:39.782Z,84.54
2023-01-27T00:49:41.494Z,83.84
2023-01-27T00:50:43.327Z,84.47
2023-01-27T00:51:45.231Z,84.65
2023-01-27T00:52:46.987Z,84.75
2023-01-27T00:53:49.128Z,84.39
2023-01-27T00:54:50.931Z,83.99
2023-01-27T00:55:52.904Z,83.73
2023-01-27T00:56:54.771Z,84.54
2023-01-27T00:57:56.643Z,84.57
2023-01-27T00:58:58.446Z,83.73
2023-01-27T01:00:00.252Z,84.02
2023-01-27T01:01:04.016Z,83.90
2023-01-27T01:02:05.934Z,84.30
2023-01-27T01:03:07.899Z,84.15
2023-01-27T01:04:09.703Z,84.77
2023-01-27T01:05:11.496Z,84.81
2023-01-27T01:06:15.127Z,84.67
2023-01-27T01:07:16.928Z,84.61
2023-01-27T01:08:19.194Z,83.80
2023-01-27T01:09:21.052Z,83.79
2023-01-27T01:10:22.931Z,83.78
2023-01-27T01:11:24.741Z,83.54
2023-01-27T01:12:26.586Z,83.64
2023-01-27T01:13:28.903Z,83.83
2023-01-27T01:14:30.723Z,84.09
2023-01-27T01:15:35.292Z,83.35
2023-01-27T01:16:37.171Z,83.72
2023-01-27T01:17:39.021Z,83.99
2023-01-27T01:18:40.865Z,84.03
2023-01-27T01:19:42.731Z,83.66
2023-01-27T01:20:45.197Z,83.90
2023-01-27T01:21:47.119Z,84.13
2023-01-27T01:22:48.920Z,84.15
2023-01-27T01:23:51.077Z,84.53
2023-01-27T01:24:53.039Z,84.67
2023-01-27T01:25:55.747Z,84.33
2023-01-27T01:26:57.498Z,84.34
2023-01-27T01:27:59.247Z,84.76
2023-01-27T01:29:01.080Z,84.36
2023-01-27T01:30:03.295Z,84.69
2023-01-27T01:31:08.960Z,84.06
2023-01-27T01:32:10.840Z,84.13
2023-01-27T01:33:12.719Z,84.37
2023-01-27T01:34:14.492Z,84.53
2023-01-27T01:35:16.324Z,83.67
2023-01-27T01:36:19.666Z,84.64
2023-01-27T01:37:21.532Z,83.91
2023-01-27T01:38:23.295Z,83.77
2023-01-27T01:39:25.062Z,83.96
2023-01-27T01:40:26.882Z,83.62
2023-01-27T01:41:28.800Z,83.82
2023-01-27T01:43:06.064Z,83.98
2023-01-27T01:44:26.188Z,83.77
2023-01-27T01:45:34.108Z,84.53
2023-01-27T01:46:36.050Z,84.43
2023-01-27T01:47:38.016Z,84.15
2023-01-27T01:48:47.221Z,84.25
2023-01-27T01:49:49.194Z,83.44
2023-01-27T01:50:53.488Z,83.94
2023-01-27T01:51:57.059Z,83.45
2023-01-27T01:52:59.677Z,83.83
2023-01-27T01:54:06.871Z,84.04
2023-01-27T01:55:10.032Z,83.34
2023-01-27T01:56:17.142Z,84.02
2023-01-27T01:57:23.204Z,84.02
2023-01-27T01:58:28.328Z,84.16
2023-01-27T01:59:32.864Z,83.54
2023-01-27T02:00:35.155Z,83.97
2023-01-27T02:01:36.901Z,83.43
2023-01-27T02:02:39.506Z,83.41
2023-01-27T02:03:43.238Z,83.97
2023-01-27T02:04:48.238Z,83.61
2023-01-27T02:05:50.169Z,83.60
2023-01-27T02:07:08.120Z,83.90
2023-01-27T02:08:18.139Z,84.09
2023-01-27T02:09:21.118Z,83.96
2023-01-27T02:10:23.053Z,83.23
2023-01-27T02:11:25.232Z,83.12
2023-01-27T02:12:27.454Z,84.03
2023-01-27T02:13:29.253Z,83.20
2023-01-27T02:14:31.361Z,83.25
2023-01-27T02:15:33.482Z,83.71
2023-01-27T02:16:35.675Z,83.94
2023-01-27T02:17:37.597Z,82.97
2023-01-27T02:18:41.252Z,83.89
2023-01-27T02:20:01.142Z,83.45
2023-01-27T02:21:03.438Z,83.25
2023-01-27T02:22:06.467Z,83.18
2023-01-27T02:23:28.367Z,83.14
2023-01-27T02:24:34.538Z,83.67
2023-01-27T02:25:36.312Z,83.34
2023-01-27T02:26:40.504Z,83.75
2023-01-27T02:27:42.325Z,82.99
2023-01-27T02:28:44.226Z,83.29
2023-01-27T02:29:45.988Z,83.36
2023-01-27T02:30:47.950Z,83.51
2023-01-27T02:31:49.944Z,83.65
2023-01-27T02:32:52.177Z,82.80
2023-01-27T02:33:57.478Z,83.18
2023-01-27T02:34:59.416Z,83.29
2023-01-27T02:36:03.476Z,83.16
2023-01-27T02:37:07.224Z,83.67
2023-01-27T02:38:09.601Z,83.20
2023-01-27T02:39:13.155Z,84.02
2023-01-27T02:40:15.466Z,83.04
2023-01-27T02:41:20.297Z,83.00
2023-01-27T02:42:22.134Z,83.27
2023-01-27T02:43:24.039Z,83.32
2023-01-27T02:44:25.909Z,82.97
2023-01-27T02:45:29.281Z,83.25
2023-01-27T02:46:31.646Z,83.21
2023-01-27T02:47:33.456Z,83.27
2023-01-27T02:48:35.329Z,83.06
2023-01-27T02:49:37.144Z,83.21
2023-01-27T02:50:38.991Z,83.01
2023-01-27T02:51:40.838Z,82.82
2023-01-27T02:52:42.749Z,82.83
2023-01-27T02:53:44.715Z,83.26
2023-01-27T02:54:46.677Z,82.91
2023-01-27T02:55:48.442Z,83.69
2023-01-27T02:56:50.290Z,83.89
2023-01-27T02:57:52.116Z,83.46
2023-01-27T02:58:53.982Z,83.80
2023-01-27T02:59:55.926Z,82.93
2023-01-27T03:00:57.713Z,83.28
2023-01-27T03:01:59.499Z,83.44
2023-01-27T03:03:01.323Z,82.81
2023-01-27T03:04:03.147Z,83.62
2023-01-27T03:05:05.349Z,83.05
2023-01-27T03:06:07.231Z,83.07
2023-01-27T03:07:09.000Z,83.51
2023-01-27T03:08:10.775Z,83.75
2023-01-27T03:09:12.619Z,82.67
2023-01-27T03:10:14.437Z,82.76
2023-01-27T03:11:36.703Z,82.75
2023-01-27T03:12:38.561Z,83.61
2023-01-27T03:13:40.464Z,83.52
2023-01-27T03:15:00.872Z,83.86
2023-01-27T03:16:21.474Z,83.59
2023-01-27T03:17:41.660Z,83.44
2023-01-27T03:18:47.808Z,83.81
2023-01-27T03:19:53.585Z,83.27
2023-01-27T03:21:00.864Z,83.97
2023-01-27T03:22:03.483Z,83.54
2023-01-27T03:23:05.776Z,83.40
2023-01-27T03:24:07.590Z,83.81
2023-01-27T03:25:09.650Z,83.26
2023-01-27T03:26:12.033Z,83.58
2023-01-27T03:27:13.792Z,83.36
2023-01-27T03:28:15.911Z,83.34
2023-01-27T03:29:36.281Z,82.93
2023-01-27T03:30:38.627Z,84.06
2023-01-27T03:31:40.459Z,83.73
2023-01-27T03:32:47.085Z,83.71
2023-01-27T03:33:48.976Z,83.58
2023-01-27T03:34:51.410Z,83.41
2023-01-27T03:36:11.867Z,83.02
2023-01-27T03:37:33.091Z,82.74
2023-01-27T03:38:53.420Z,83.20
2023-01-27T03:40:13.665Z,83.46
2023-01-27T03:41:33.781Z,83.56
2023-01-27T03:42:53.853Z,83.40
2023-01-27T03:44:13.985Z,82.98
2023-01-27T03:45:34.684Z,83.43
2023-01-27T03:46:36.511Z,83.71
2023-01-27T03:47:38.313Z,83.09
2023-01-27T03:48:40.383Z,83.17
2023-01-27T03:49:42.171Z,83.91
2023-01-27T03:50:44.146Z,83.89
2023-01-27T03:51:45.953Z,83.49
2023-01-27T03:53:03.560Z,84.11
2023-01-27T03:54:05.665Z,83.32
2023-01-27T03:55:09.731Z,83.53
2023-01-27T03:56:12.113Z,83.40
2023-01-27T03:57:13.892Z,83.75
2023-01-27T03:58:21.100Z,84.35
2023-01-27T03:59:23.025Z,83.77
2023-01-27T04:00:24.971Z,83.96
2023-01-27T04:01:26.910Z,84.17
2023-01-27T04:02:47.594Z,84.31
2023-01-27T04:04:08.479Z,83.71
2023-01-27T04:05:28.615Z,83.64
2023-01-27T04:06:50.156Z,83.46
2023-01-27T04:07:51.914Z,83.63
2023-01-27T04:08:53.888Z,84.06
2023-01-27T04:09:55.761Z,84.02
2023-01-27T04:11:20.792Z,83.62
2023-01-27T04:12:22.574Z,84.39
2023-01-27T04:13:24.369Z,83.46
2023-01-27T04:14:26.222Z,83.48
2023-01-27T04:15:28.119Z,83.64
2023-01-27T04:16:30.515Z,83.66
2023-01-27T04:17:39.058Z,83.98
2023-01-27T04:18:40.946Z,83.66
2023-01-27T04:19:42.778Z,84.23
2023-01-27T04:20:44.617Z,84.63
2023-01-27T04:21:46.768Z,84.32
2023-01-27T04:22:48.583Z,84.67
2023-01-27T04:23:50.499Z,84.15
2023-01-27T04:24:52.268Z,84.05
2023-01-27T04:25:54.624Z,83.92
2023-01-27T04:26:56.493Z,84.31
2023-01-27T04:27:58.658Z,84.44
2023-01-27T04:29:04.174Z,83.81
2023-01-27T04:30:06.299Z,84.45
2023-01-27T04:31:08.196Z,84.00
2023-01-27T04:32:11.116Z,84.31
2023-01-27T04:33:15.459Z,83.44
2023-01-27T04:34:17.775Z,83.79
2023-01-27T04:35:21.566Z,84.08
2023-01-27T04:36:25.182Z,84.12
2023-01-27T04:37:27.054Z,83.90
2023-01-27T04:38:29.041Z,83.85
2023-01-27T04:39:30.796Z,84.07
2023-01-27T04:40:32.554Z,83.75
2023-01-27T04:41:34.442Z,84.05
2023-01-27T04:42:36.259Z,84.04
2023-01-27T04:43:38.038Z,84.32
2023-01-27T04:44:39.853Z,83.57
2023-01-27T04:45:41.682Z,83.47
2023-01-27T04:46:43.456Z,84.30
2023-01-27T04:47:45.331Z,83.94
2023-01-27T04:48:47.192Z,83.56
2023-01-27T04:49:48.962Z,83.66
2023-01-27T04:50:50.873Z,83.76
2023-01-27T04:51:52.597Z,83.83
2023-01-27T04:52:54.405Z,84.26
2023-01-27T04:53:56.300Z,84.11
2023-01-27T04:54:58.153Z,84.41
2023-01-27T04:56:04.175Z,84.34
2023-01-27T04:57:06.201Z,83.66
2023-01-27T04:58:07.970Z,83.60
2023-01-27T04:59:12.191Z,84.18
2023-01-27T05:00:16.483Z,83.76
2023-01-27T05:01:18.913Z,83.85
2023-01-27T05:02:20.688Z,83.70
2023-01-27T05:03:22.483Z,83.69
2023-01-27T05:04:26.631Z,83.63
2023-01-27T05:05:28.463Z,83.70
2023-01-27T05:06:30.382Z,84.13
2023-01-27T05:07:32.377Z,83.73
2023-01-27T05:08:34.190Z,84.32
2023-01-27T05:09:36.015Z,84.23
2023-01-27T05:10:37.835Z,83.90
2023-01-27T05:11:39.673Z,83.97
2023-01-27T05:12:41.393Z,84.08
2023-01-27T05:13:43.287Z,84.67
2023-01-27T05:14:45.168Z,84.17
2023-01-27T05:15:48.281Z,84.55
2023-01-27T05:16:50.059Z,84.31
2023-01-27T05:17:51.979Z,84.49
2023-01-27T05:18:54.026Z,84.89
2023-01-27T05:19:55.885Z,84.64
2023-01-27T05:21:01.836Z,84.41
2023-01-27T05:22:03.646Z,83.75
2023-01-27T05:23:24.064Z,83.70
2023-01-27T05:24:25.948Z,83.91
2023-01-27T05:25:27.891Z,83.84
2023-01-27T05:26:29.822Z,84.19
2023-01-27T05:27:31.847Z,84.01
2023-01-27T05:28:34.379Z,84.50
2023-01-27T05:29:36.166Z,83.90
2023-01-27T05:30:38.033Z,83.68
2023-01-27T05:31:39.927Z,83.78
2023-01-27T05:32:41.717Z,83.64
2023-01-27T05:33:43.530Z,83.29
2023-01-27T05:34:45.414Z,84.02
2023-01-27T05:35:47.172Z,83.73
2023-01-27T05:36:49.005Z,83.48
2023-01-27T05:37:50.945Z,83.16
2023-01-27T05:38:53.511Z,83.52
2023-01-27T05:39:55.692Z,82.75
2023-01-27T05:41:02.517Z,82.92
2023-01-27T05:42:04.439Z,83.16
2023-01-27T05:43:06.216Z,82.64
2023-01-27T05:44:11.422Z,83.37
2023-01-27T05:45:13.487Z,83.06
2023-01-27T05:46:16.994Z,83.10
2023-01-27T05:47:18.796Z,83.03
2023-01-27T05:48:20.612Z,82.07
2023-01-27T05:49:22.395Z,82.25
2023-01-27T05:50:24.204Z,82.62
2023-01-27T05:51:28.869Z,82.46
2023-01-27T05:52:30.702Z,82.38
2023-01-27T05:53:32.823Z,82.54
2023-01-27T05:54:34.666Z,81.87
2023-01-27T05:55:36.443Z,82.30
2023-01-27T05:56:38.322Z,82.46
2023-01-27T05:57:40.157Z,82.29
2023-01-27T05:58:41.964Z,82.04
2023-01-27T05:59:43.710Z,82.91
2023-01-27T06:00:46.004Z,82.76
2023-01-27T06:01:47.959Z,82.43
2023-01-27T06:02:49.852Z,82.49
2023-01-27T06:03:51.835Z,82.13
2023-01-27T06:04:53.684Z,82.17
2023-01-27T06:05:56.519Z,81.82
2023-01-27T06:06:58.343Z,82.19
2023-01-27T06:08:00.182Z,82.63
2023-01-27T06:09:02.864Z,82.28
2023-01-27T06:10:05.861Z,82.62
2023-01-27T06:11:08.666Z,82.25
2023-01-27T06:12:10.443Z,82.25
2023-01-27T06:13:12.508Z,82.41
2023-01-27T06:14:14.275Z,82.66
2023-01-27T06:15:16.093Z,82.55
2023-01-27T06:16:19.298Z,81.86
2023-01-27T06:17:21.228Z,82.35
2023-01-27T06:18:23.885Z,82.31
2023-01-27T06:19:25.670Z,81.72
2023-01-27T06:20:27.526Z,81.61
2023-01-27T06:21:29.340Z,82.09
2023-01-27T06:22:31.176Z,81.78
2023-01-27T06:23:33.160Z,82.80
2023-01-27T06:24:35.016Z,82.56
2023-01-27T06:25:38.008Z,82.56
2023-01-27T06:26:39.955Z,81.88
2023-01-27T06:27:41.703Z,82.02
2023-01-27T06:28:44.068Z,82.14
2023-01-27T06:29:45.959Z,82.19
2023-01-27T06:30:47.734Z,82.48
2023-01-27T06:31:49.610Z,82.56
2023-01-27T06:32:51.390Z,82.51
2023-01-27T06:33:53.271Z,82.14
2023-01-27T06:34:55.040Z,81.89
2023-01-27T06:36:01.079Z,81.97
2023-01-27T06:37:02.956Z,82.09
2023-01-27T06:38:05.706Z,81.57
2023-01-27T06:39:07.511Z,82.17
2023-01-27T06:40:09.700Z,81.94
2023-01-27T06:41:11.731Z,81.28
2023-01-27T06:42:13.535Z,82.15
2023-01-27T06:43:15.296Z,81.50
2023-01-27T06:44:17.164Z,81.56
2023-01-27T06:45:19.064Z,81.18
2023-01-27T06:46:20.931Z,81.43
2023-01-27T06:47:22.660Z,82.18
2023-01-27T06:48:24.878Z,81.60
2023-01-27T06:49:26.742Z,81.30
2023-01-27T06:50:29.408Z,82.04
2023-01-27T06:51:31.213Z,81.81
2023-01-27T06:52:32.983Z,81.09
2023-01-27T06:53:37.525Z,81.70
2023-01-27T06:54:39.496Z,81.70
2023-01-27T06:55:45.297Z,81.13
2023-01-27T06:56:47.072Z,82.06
2023-01-27T06:57:48.920Z,81.18
2023-01-27T06:58:50.722Z,81.84
2023-01-27T06:59:52.550Z,80.88
2023-01-27T07:00:54.409Z,81.57
2023-01-27T07:01:56.253Z,80.99
2023-01-27T07:02:58.102Z,81.15
2023-01-27T07:04:00.012Z,81.30
2023-01-27T07:05:01.928Z,81.34
2023-01-27T07:06:03.840Z,80.73
2023-01-27T07:07:05.677Z,81.33
2023-01-27T07:08:07.526Z,80.72
2023-01-27T07:09:09.356Z,80.83
2023-01-27T07:10:11.997Z,80.57
2023-01-27T07:11:14.443Z,80.88
2023-01-27T07:12:16.227Z,81.07
2023-01-27T07:13:19.340Z,80.99
2023-01-27T07:14:21.223Z,81.79
2023-01-27T07:15:23.019Z,81.01
2023-01-27T07:16:24.858Z,81.00
2023-01-27T07:17:26.685Z,81.58
2023-01-27T07:18:28.584Z,81.27
2023-01-27T07:19:30.414Z,82.15
2023-01-27T07:20:32.609Z,82.19
2023-01-27T07:21:34.440Z,81.90
2023-01-27T07:22:36.217Z,82.32
2023-01-27T07:23:38.148Z,82.20
2023-01-27T07:24:39.914Z,82.75
2023-01-27T07:25:42.756Z,82.59
2023-01-27T07:26:47.602Z,82.46
2023-01-27T07:27:49.435Z,83.00
2023-01-27T07:28:51.261Z,82.22
2023-01-27T07:29:53.069Z,82.97
2023-01-27T07:30:54.952Z,83.03
2023-01-27T07:31:56.820Z,83.35
2023-01-27T07:33:16.607Z,82.53
2023-01-27T07:34:18.375Z,82.55
2023-01-27T07:35:20.256Z,83.36
2023-01-27T07:36:22.237Z,83.27
2023-01-27T07:37:24.749Z,82.84
2023-01-27T07:38:26.639Z,83.02
2023-01-27T07:39:28.524Z,82.72
2023-01-27T07:40:30.266Z,83.06
2023-01-27T07:41:32.164Z,82.68
2023-01-27T07:42:34.042Z,82.55
2023-01-27T07:43:35.884Z,82.93
2023-01-27T07:44:37.740Z,82.91
2023-01-27T07:45:39.668Z,82.31
2023-01-27T07:46:41.566Z,82.92
2023-01-27T07:47:43.452Z,83.02
2023-01-27T07:48:45.288Z,83.18
2023-01-27T07:49:47.471Z,83.12
2023-01-27T07:50:49.469Z,82.99
2023-01-27T07:51:51.330Z,82.70
2023-01-27T07:52:53.163Z,82.36
2023-01-27T07:53:55.016Z,82.55
2023-01-27T07:54:56.795Z,83.22
2023-01-27T07:56:01.841Z,83.10
2023-01-27T07:57:03.634Z,82.07
2023-01-27T07:58:06.048Z,82.20
2023-01-27T07:59:09.797Z,82.29
2023-01-27T08:00:15.864Z,82.07
2023-01-27T08:01:17.786Z,82.46
2023-01-27T08:02:19.565Z,82.21
2023-01-27T08:03:22.792Z,82.06
2023-01-27T08:04:24.685Z,82.68
2023-01-27T08:05:26.975Z,81.97
2023-01-27T08:06:28.914Z,81.89
2023-01-27T08:07:30.674Z,82.29
2023-01-27T08:08:32.504Z,82.54
2023-01-27T08:09:34.369Z,82.00
2023-01-27T08:10:36.112Z,82.27
2023-01-27T08:11:37.950Z,81.94
2023-01-27T08:12:39.741Z,82.76
2023-01-27T08:13:41.537Z,81.77
2023-01-27T08:14:43.393Z,82.21
2023-01-27T08:15:45.910Z,81.44
2023-01-27T08:16:47.801Z,81.51
2023-01-27T08:17:59.316Z,81.89
2023-01-27T08:19:01.159Z,81.72
2023-01-27T08:20:03.109Z,82.24
2023-01-27T08:21:06.092Z,81.88
2023-01-27T08:22:07.873Z,82.16
2023-01-27T08:23:09.615Z,82.20
2023-01-27T08:24:13.176Z,82.16
2023-01-27T08:25:15.094Z,81.51
2023-01-27T08:26:16.878Z,81.78
2023-01-27T08:27:18.714Z,82.12
2023-01-27T08:28:21.635Z,82.02
2023-01-27T08:29:23.877Z,82.59
2023-01-27T08:30:26.369Z,81.89
2023-01-27T08:31:29.705Z,82.19
2023-01-27T08:32:31.809Z,82.79
2023-01-27T08:33:33.688Z,82.24
2023-01-27T08:34:35.470Z,82.75
2023-01-27T08:35:39.243Z,82.00
2023-01-27T08:36:43.722Z,82.23
2023-01-27T08:37:48.223Z,82.45
2023-01-27T08:38:50.850Z,82.33
2023-01-27T08:39:52.692Z,83.28
2023-01-27T08:40:54.621Z,82.26
2023-01-27T08:41:56.359Z,82.78
2023-01-27T08:42:58.215Z,82.35
2023-01-27T08:44:00.034Z,83.41
2023-01-27T08:45:01.889Z,83.61
2023-01-27T08:46:04.707Z,82.90
2023-01-27T08:47:06.502Z,83.34
2023-01-27T08:48:08.709Z,83.34
2023-01-27T08:49:11.396Z,83.14
2023-01-27T08:50:13.699Z,82.79
2023-01-27T08:51:15.918Z,83.69
2023-01-27T08:52:17.659Z,83.03
2023-01-27T08:53:19.434Z,83.79
2023-01-27T08:54:21.209Z,82.79
2023-01-27T08:55:23.098Z,83.14
2023-01-27T08:56:24.983Z,82.92
2023-01-27T08:57:26.859Z,82.95
2023-01-27T08:58:28.611Z,82.86
2023-01-27T08:59:30.343Z,82.73
2023-01-27T09:00:32.288Z,83.38
2023-01-27T09:01:34.275Z,82.89
2023-01-27T09:02:36.081Z,82.55
2023-01-27T09:03:37.839Z,82.55
2023-01-27T09:04:43.940Z,83.24
2023-01-27T09:05:47.033Z,82.47
2023-01-27T09:06:50.541Z,82.33
2023-01-27T09:07:52.394Z,83.07
2023-01-27T09:09:12.542Z,82.96
2023-01-27T09:10:16.232Z,82.49
2023-01-27T09:11:18.227Z,81.82
2023-01-27T09:12:20.051Z,81.52
2023-01-27T09:13:24.837Z,82.69
2023-01-27T09:14:26.664Z,81.80
2023-01-27T09:15:28.504Z,82.61
2023-01-27T09:16:30.510Z,82.29
2023-01-27T09:17:32.389Z,81.95
2023-01-27T09:18:34.574Z,81.96
2023-01-27T09:19:36.372Z,81.79
2023-01-27T09:20:38.273Z,82.81
2023-01-27T09:21:40.192Z,82.80
2023-01-27T09:22:42.305Z,82.65
2023-01-27T09:23:44.194Z,82.43
2023-01-27T09:24:45.974Z,82.43
2023-01-27T09:25:47.938Z,82.43
2023-01-27T09:26:49.878Z,82.11
2023-01-27T09:27:58.372Z,82.50
2023-01-27T09:29:00.253Z,81.73
2023-01-27T09:30:02.226Z,82.64
2023-01-27T09:31:04.228Z,81.95
2023-01-27T09:32:06.351Z,82.48
2023-01-27T09:33:09.620Z,82.64
2023-01-27T09:34:11.823Z,82.74
2023-01-27T09:35:14.046Z,82.00
2023-01-27T09:36:21.757Z,82.78
2023-01-27T09:37:27.623Z,81.99
2023-01-27T09:38:33.291Z,81.70
2023-01-27T09:39:37.780Z,82.74
2023-01-27T09:40:39.696Z,81.85
2023-01-27T09:42:08.209Z,81.89
2023-01-27T09:43:13.394Z,82.49
2023-01-27T09:44:27.364Z,81.99
2023-01-27T09:46:04.752Z,81.57
2023-01-27T09:47:18.212Z,82.26
2023-01-27T09:48:39.867Z,82.06
2023-01-27T09:50:00.144Z,82.29
2023-01-27T09:51:04.057Z,81.61
2023-01-27T09:52:08.902Z,81.91
2023-01-27T09:53:29.292Z,81.59
2023-01-27T09:54:44.338Z,82.12
2023-01-27T09:55:58.306Z,82.18
2023-01-27T09:57:05.577Z,82.04
2023-01-27T09:58:07.347Z,81.54
2023-01-27T09:59:31.885Z,81.42
2023-01-27T10:00:45.428Z,82.62
2023-01-27T10:02:11.592Z,81.61
2023-01-27T10:03:31.190Z,81.77
2023-01-27T10:04:38.605Z,81.85
2023-01-27T10:05:43.024Z,82.11
2023-01-27T10:06:49.252Z,82.59
2023-01-27T10:07:51.054Z,82.75
2023-01-27T10:09:07.944Z,82.62
2023-01-27T10:10:28.040Z,82.85
2023-01-27T10:11:35.686Z,82.04
2023-01-27T10:12:37.479Z,82.72
2023-01-27T10:13:45.431Z,81.97
2023-01-27T10:15:06.031Z,82.25
2023-01-27T10:16:14.211Z,82.37
2023-01-27T10:17:24.909Z,82.76
2023-01-27T10:18:35.668Z,81.70
2023-01-27T10:19:45.683Z,81.81
2023-01-27T10:20:53.160Z,81.57
2023-01-27T10:21:59.773Z,82.00
2023-01-27T10:23:07.730Z,81.84
2023-01-27T10:24:27.991Z,81.88
2023-01-27T10:25:39.282Z,82.54
2023-01-27T10:26:47.005Z,82.54
2023-01-27T10:27:52.840Z,81.85
2023-01-27T10:29:03.484Z,82.21
2023-01-27T10:30:21.061Z,82.74
2023-01-27T10:31:27.160Z,82.03
2023-01-27T10:32:34.018Z,82.72
2023-01-27T10:33:53.081Z,82.04
2023-01-27T10:35:13.558Z,82.50
2023-01-27T10:36:38.617Z,81.76
2023-01-27T10:37:59.147Z,82.71
2023-01-27T10:39:00.885Z,82.51
2023-01-27T10:40:02.783Z,81.65
2023-01-27T10:41:04.546Z,81.47
2023-01-27T10:42:28.456Z,81.43
2023-01-27T10:43:36.281Z,81.82
2023-01-27T10:44:53.907Z,81.52
2023-01-27T10:46:02.781Z,82.13
2023-01-27T10:47:07.412Z,81.40
2023-01-27T10:48:21.477Z,81.13
2023-01-27T10:49:30.074Z,81.31
2023-01-27T10:50:36.429Z,80.74
2023-01-27T10:51:49.942Z,80.83
2023-01-27T10:52:59.149Z,80.78
2023-01-27T10:54:17.812Z,80.68
2023-01-27T10:55:22.391Z,80.86
2023-01-27T10:56:30.932Z,81.50
2023-01-27T10:57:32.699Z,80.84
2023-01-27T10:58:43.624Z,81.00
2023-01-27T11:00:34.070Z,81.12
2023-01-27T11:01:38.426Z,80.62
2023-01-27T11:02:46.165Z,80.68
2023-01-27T11:03:51.550Z,80.92
2023-01-27T11:04:59.047Z,80.23
2023-01-27T11:06:08.492Z,80.78
2023-01-27T11:07:17.958Z,80.50
2023-01-27T11:08:21.970Z,80.35
2023-01-27T11:09:31.898Z,80.57
2023-01-27T11:10:36.680Z,80.91
2023-01-27T11:11:44.931Z,81.35
2023-01-27T11:12:52.235Z,80.74
2023-01-27T11:14:04.825Z,80.91
2023-01-27T11:15:16.701Z,80.32
2023-01-27T11:16:19.750Z,80.80
2023-01-27T11:17:54.311Z,81.16
2023-01-27T11:19:00.824Z,81.29
2023-01-27T11:20:20.618Z,81.26
2023-01-27T11:21:24.389Z,80.18
2023-01-27T11:22:38.140Z,80.78
2023-01-27T11:23:46.279Z,80.61
2023-01-27T11:24:51.588Z,79.68
2023-01-27T11:25:57.053Z,80.57
2023-01-27T11:27:04.013Z,80.14
2023-01-27T11:28:17.883Z,80.00
2023-01-27T11:29:34.562Z,80.14
2023-01-27T11:30:44.743Z,80.88
2023-01-27T11:31:52.499Z,80.24
2023-01-27T11:33:05.445Z,80.57
2023-01-27T11:34:24.208Z,80.64
2023-01-27T11:35:26.047Z,81.41
2023-01-27T11:36:27.823Z,80.97
2023-01-27T11:37:37.734Z,80.51
2023-01-27T11:38:39.651Z,80.93
2023-01-27T11:39:41.573Z,80.57
2023-01-27T11:40:45.691Z,80.30
2023-01-27T11:41:56.354Z,80.25
2023-01-27T11:42:58.531Z,80.79
2023-01-27T11:44:06.020Z,80.96
2023-01-27T11:45:13.955Z,80.19
2023-01-27T11:46:19.414Z,79.85
2023-01-27T11:47:25.243Z,80.89
2023-01-27T11:48:31.782Z,79.78
2023-01-27T11:49:39.383Z,80.18
2023-01-27T11:50:42.429Z,79.96
2023-01-27T11:51:44.235Z,80.67
2023-01-27T11:52:48.605Z,80.65
2023-01-27T11:54:02.103Z,80.61
2023-01-27T11:55:25.325Z,79.88
2023-01-27T11:56:28.731Z,80.09
2023-01-27T11:57:31.003Z,79.76
2023-01-27T11:58:36.867Z,80.65
2023-01-27T11:59:40.330Z,80.43
2023-01-27T12:00:52.025Z,79.76
2023-01-27T12:01:59.892Z,80.29
2023-01-27T12:03:05.640Z,79.96
2023-01-27T12:04:13.335Z,79.45
2023-01-27T12:05:18.123Z,78.98
2023-01-27T12:06:40.195Z,79.88
2023-01-27T12:07:41.912Z,79.21
2023-01-27T12:08:49.968Z,79.90
2023-01-27T12:09:51.845Z,79.45
2023-01-27T12:10:53.691Z,78.84
2023-01-27T12:12:09.916Z,78.80
2023-01-27T12:13:19.533Z,79.84
2023-01-27T12:14:23.877Z,79.89
2023-01-27T12:15:30.092Z,79.71
2023-01-27T12:16:40.690Z,79.42
2023-01-27T12:17:46.578Z,80.36
2023-01-27T12:18:57.118Z,80.63
2023-01-27T12:20:23.559Z,80.00
2023-01-27T12:21:35.971Z,79.73
2023-01-27T12:22:39.371Z,79.94
2023-01-27T12:23:47.931Z,80.34
2023-01-27T12:24:52.809Z,80.24
2023-01-27T12:26:02.446Z,79.49
2023-01-27T12:27:06.004Z,79.42
2023-01-27T12:28:17.217Z,79.32
2023-01-27T12:29:27.678Z,80.56
2023-01-27T12:30:31.046Z,80.16
2023-01-27T12:31:42.575Z,80.67
2023-01-27T12:32:46.845Z,79.97
2023-01-27T12:34:06.334Z,80.10
2023-01-27T12:35:18.647Z,80.80
2023-01-27T12:36:24.560Z,80.58
2023-01-27T12:37:32.404Z,81.16
2023-01-27T12:38:36.683Z,80.73
2023-01-27T12:39:45.895Z,80.96
2023-01-27T12:40:48.635Z,80.74
2023-01-27T12:41:51.120Z,81.59
2023-01-27T12:43:01.818Z,80.47
2023-01-27T12:44:16.132Z,81.15
2023-01-27T12:45:17.999Z,81.34
2023-01-27T12:46:26.849Z,81.03
2023-01-27T12:47:29.651Z,81.12
2023-01-27T12:48:32.199Z,81.54
2023-01-27T12:49:35.743Z,80.80
2023-01-27T12:50:39.384Z,80.74
2023-01-27T12:51:45.406Z,81.37
2023-01-27T12:52:54.243Z,82.02
2023-01-27T12:54:14.680Z,80.90
2023-01-27T12:55:36.740Z,81.13
2023-01-27T12:56:39.005Z,81.83
2023-01-27T12:57:43.540Z,80.97
2023-01-27T12:58:46.816Z,81.19
2023-01-27T12:59:52.961Z,81.46
2023-01-27T13:00:55.471Z,80.97
2023-01-27T13:02:01.915Z,80.96
2023-01-27T13:03:06.115Z,81.81
2023-01-27T13:04:17.031Z,81.22
2023-01-27T13:05:20.218Z,81.17
2023-01-27T13:06:27.687Z,81.81
2023-01-27T13:07:31.494Z,81.65
2023-01-27T13:08:34.212Z,81.98
2023-01-27T13:09:51.053Z,81.83
2023-01-27T13:10:55.176Z,81.91
2023-01-27T13:11:59.067Z,81.22
2023-01-27T13:13:05.291Z,82.04
2023-01-27T13:14:08.500Z,81.67
2023-01-27T13:15:17.282Z,82.16
2023-01-27T13:16:27.189Z,81.32
2023-01-27T13:17:30.674Z,81.39
2023-01-27T13:18:36.415Z,81.78
2023-01-27T13:19:44.240Z,81.36
2023-01-27T13:20:48.511Z,80.85
2023-01-27T13:21:53.709Z,81.23
2023-01-27T13:23:04.323Z,80.76
2023-01-27T13:24:11.913Z,81.24
2023-01-27T13:25:17.311Z,80.76
2023-01-27T13:26:21.394Z,81.30
2023-01-27T13:27:23.821Z,81.11
2023-01-27T13:28:46.107Z,80.88
2023-01-27T13:30:04.011Z,80.68
2023-01-27T13:31:09.199Z,81.16
2023-01-27T13:32:21.323Z,81.47
2023-01-27T13:33:35.703Z,81.38
2023-01-27T13:35:06.792Z,81.60
2023-01-27T13:36:12.939Z,81.62
2023-01-27T13:37:24.665Z,81.70
2023-01-27T13:38:46.735Z,81.52
2023-01-27T13:40:06.840Z,80.67
2023-01-27T13:41:14.605Z,81.61
2023-01-27T13:42:34.638Z,81.86
2023-01-27T13:43:41.638Z,81.69
2023-01-27T13:44:45.807Z,80.66
2023-01-27T13:45:50.414Z,81.21
2023-01-27T13:46:54.751Z,80.99
2023-01-27T13:48:02.518Z,81.89
2023-01-27T13:49:12.917Z,81.97
2023-01-27T13:50:29.179Z,81.96
2023-01-27T13:51:33.500Z,81.42
2023-01-27T13:52:36.050Z,81.95
2023-01-27T13:53:38.751Z,81.90
2023-01-27T13:54:40.616Z,81.62
2023-01-27T13:55:42.340Z,80.83
2023-01-27T13:56:44.243Z,81.15
2023-01-27T13:57:50.637Z,81.62
2023-01-27T13:59:01.289Z,82.03
2023-01-27T14:00:06.192Z,81.83
2023-01-27T14:01:07.942Z,82.20
2023-01-27T14:02:15.990Z,82.03